sensor_id;sensor_type;location;lat;lon;timestamp;P1;durP1;ratioP1;P2;durP2;ratioP2
22289;SDS011;11313;50.116;8.424;2023-05-29T00:00:31;4.85;;;3.30;;
22289;SDS011;11313;50.116;8.424;2023-05-29T00:02:56;6.68;;;3.80;;
22289;SDS011;11313;50.116;8.424;2023-05-29T00:05:22;5.30;;;4.05;;
22289;SDS011;11313;50.116;8.424;2023-05-29T00:07:47;5.72;;;3.63;;
22289;SDS011;11313;50.116;8.424;2023-05-29T00:10:15;5.82;;;3.30;;
22289;SDS011;11313;50.116;8.424;2023-05-29T00:12:41;6.68;;;4.55;;
22289;SDS011;11313;50.116;8.424;2023-05-29T00:15:06;5.53;;;4.05;;
22289;SDS011;11313;50.116;8.424;2023-05-29T00:17:34;56.28;;;52.83;;
22289;SDS011;11313;50.116;8.424;2023-05-29T00:20:00;4.43;;;3.30;;
22289;SDS011;11313;50.116;8.424;2023-05-29T00:22:30;4.53;;;3.47;;
22289;SDS011;11313;50.116;8.424;2023-05-29T00:24:55;3.50;;;3.03;;
22289;SDS011;11313;50.116;8.424;2023-05-29T00:27:20;5.35;;;3.28;;
22289;SDS011;11313;50.116;8.424;2023-05-29T00:29:46;5.47;;;3.45;;
22289;SDS011;11313;50.116;8.424;2023-05-29T00:32:11;5.35;;;3.40;;
22289;SDS011;11313;50.116;8.424;2023-05-29T00:34:37;4.35;;;3.70;;
22289;SDS011;11313;50.116;8.424;2023-05-29T00:37:03;4.10;;;3.40;;
22289;SDS011;11313;50.116;8.424;2023-05-29T00:39:28;4.47;;;3.30;;
22289;SDS011;11313;50.116;8.424;2023-05-29T00:41:54;4.78;;;3.47;;
22289;SDS011;11313;50.116;8.424;2023-05-29T00:44:20;6.43;;;3.30;;
22289;SDS011;11313;50.116;8.424;2023-05-29T00:46:47;6.18;;;3.20;;
22289;SDS011;11313;50.116;8.424;2023-05-29T00:49:17;4.50;;;3.13;;
22289;SDS011;11313;50.116;8.424;2023-05-29T00:51:43;7.97;;;2.80;;
22289;SDS011;11313;50.116;8.424;2023-05-29T00:54:11;5.82;;;5.15;;
22289;SDS011;11313;50.116;8.424;2023-05-29T00:56:39;7.90;;;3.03;;
22289;SDS011;11313;50.116;8.424;2023-05-29T00:59:08;5.18;;;3.03;;
22289;SDS011;11313;50.116;8.424;2023-05-29T01:01:34;5.60;;;3.30;;
22289;SDS011;11313;50.116;8.424;2023-05-29T01:04:00;6.63;;;3.58;;
22289;SDS011;11313;50.116;8.424;2023-05-29T01:06:31;4.30;;;3.90;;
22289;SDS011;11313;50.116;8.424;2023-05-29T01:08:57;4.15;;;2.70;;
22289;SDS011;11313;50.116;8.424;2023-05-29T01:14:14;5.95;;;3.15;;
22289;SDS011;11313;50.116;8.424;2023-05-29T01:16:51;6.30;;;2.75;;
22289;SDS011;11313;50.116;8.424;2023-05-29T01:19:38;5.07;;;2.88;;
22289;SDS011;11313;50.116;8.424;2023-05-29T01:25:34;4.00;;;2.47;;
22289;SDS011;11313;50.116;8.424;2023-05-29T01:28:21;3.55;;;2.40;;
22289;SDS011;11313;50.116;8.424;2023-05-29T01:30:52;4.57;;;2.80;;
22289;SDS011;11313;50.116;8.424;2023-05-29T01:33:19;4.88;;;2.60;;
22289;SDS011;11313;50.116;8.424;2023-05-29T01:35:45;5.68;;;2.90;;
22289;SDS011;11313;50.116;8.424;2023-05-29T01:38:10;4.07;;;2.45;;
22289;SDS011;11313;50.116;8.424;2023-05-29T01:40:36;3.35;;;2.63;;
22289;SDS011;11313;50.116;8.424;2023-05-29T01:43:02;4.80;;;2.78;;
22289;SDS011;11313;50.116;8.424;2023-05-29T01:45:28;3.17;;;2.40;;
22289;SDS011;11313;50.116;8.424;2023-05-29T01:47:54;4.57;;;2.72;;
22289;SDS011;11313;50.116;8.424;2023-05-29T01:50:21;3.58;;;2.60;;
22289;SDS011;11313;50.116;8.424;2023-05-29T01:52:48;5.68;;;2.90;;
22289;SDS011;11313;50.116;8.424;2023-05-29T01:55:14;3.13;;;2.60;;
22289;SDS011;11313;50.116;8.424;2023-05-29T01:57:40;3.78;;;2.53;;
22289;SDS011;11313;50.116;8.424;2023-05-29T02:00:06;3.08;;;2.53;;
22289;SDS011;11313;50.116;8.424;2023-05-29T02:02:37;6.03;;;2.63;;
22289;SDS011;11313;50.116;8.424;2023-05-29T02:05:04;5.22;;;2.83;;
22289;SDS011;11313;50.116;8.424;2023-05-29T02:07:30;3.25;;;2.60;;
22289;SDS011;11313;50.116;8.424;2023-05-29T02:09:56;4.10;;;3.35;;
22289;SDS011;11313;50.116;8.424;2023-05-29T02:12:21;5.28;;;2.70;;
22289;SDS011;11313;50.116;8.424;2023-05-29T02:14:47;3.55;;;2.65;;
22289;SDS011;11313;50.116;8.424;2023-05-29T02:17:13;3.35;;;2.65;;
22289;SDS011;11313;50.116;8.424;2023-05-29T02:19:39;3.08;;;2.55;;
22289;SDS011;11313;50.116;8.424;2023-05-29T02:22:05;4.22;;;2.60;;
22289;SDS011;11313;50.116;8.424;2023-05-29T02:24:31;4.85;;;2.90;;
22289;SDS011;11313;50.116;8.424;2023-05-29T02:26:57;2.88;;;2.45;;
22289;SDS011;11313;50.116;8.424;2023-05-29T02:29:22;3.03;;;2.42;;
22289;SDS011;11313;50.116;8.424;2023-05-29T02:31:48;5.47;;;2.42;;
22289;SDS011;11313;50.116;8.424;2023-05-29T02:34:13;4.35;;;2.50;;
22289;SDS011;11313;50.116;8.424;2023-05-29T02:36:39;3.17;;;2.33;;
22289;SDS011;11313;50.116;8.424;2023-05-29T02:39:05;3.72;;;2.40;;
22289;SDS011;11313;50.116;8.424;2023-05-29T02:41:31;3.05;;;2.50;;
22289;SDS011;11313;50.116;8.424;2023-05-29T02:43:56;3.00;;;2.70;;
22289;SDS011;11313;50.116;8.424;2023-05-29T02:46:22;3.47;;;2.45;;
22289;SDS011;11313;50.116;8.424;2023-05-29T02:48:47;2.45;;;2.20;;
22289;SDS011;11313;50.116;8.424;2023-05-29T02:51:13;2.88;;;2.30;;
22289;SDS011;11313;50.116;8.424;2023-05-29T02:53:39;2.90;;;2.38;;
22289;SDS011;11313;50.116;8.424;2023-05-29T02:56:05;3.25;;;2.80;;
22289;SDS011;11313;50.116;8.424;2023-05-29T02:58:33;3.42;;;2.38;;
22289;SDS011;11313;50.116;8.424;2023-05-29T03:01:00;2.92;;;2.33;;
22289;SDS011;11313;50.116;8.424;2023-05-29T03:03:27;3.83;;;2.50;;
22289;SDS011;11313;50.116;8.424;2023-05-29T03:05:53;2.53;;;2.22;;
22289;SDS011;11313;50.116;8.424;2023-05-29T03:08:18;3.45;;;2.42;;
22289;SDS011;11313;50.116;8.424;2023-05-29T03:10:44;4.32;;;2.45;;
22289;SDS011;11313;50.116;8.424;2023-05-29T03:13:10;3.95;;;2.72;;
22289;SDS011;11313;50.116;8.424;2023-05-29T03:15:35;2.60;;;2.25;;
22289;SDS011;11313;50.116;8.424;2023-05-29T03:18:01;3.63;;;2.35;;
22289;SDS011;11313;50.116;8.424;2023-05-29T03:20:26;2.60;;;2.40;;
22289;SDS011;11313;50.116;8.424;2023-05-29T03:22:53;3.28;;;2.33;;
22289;SDS011;11313;50.116;8.424;2023-05-29T03:25:18;3.22;;;2.47;;
22289;SDS011;11313;50.116;8.424;2023-05-29T03:27:45;3.65;;;2.38;;
22289;SDS011;11313;50.116;8.424;2023-05-29T03:30:11;2.70;;;2.30;;
22289;SDS011;11313;50.116;8.424;2023-05-29T03:32:37;3.92;;;2.50;;
22289;SDS011;11313;50.116;8.424;2023-05-29T03:35:02;2.67;;;2.33;;
22289;SDS011;11313;50.116;8.424;2023-05-29T03:37:28;2.50;;;2.30;;
22289;SDS011;11313;50.116;8.424;2023-05-29T03:39:54;2.85;;;2.28;;
22289;SDS011;11313;50.116;8.424;2023-05-29T03:42:20;2.97;;;2.50;;
22289;SDS011;11313;50.116;8.424;2023-05-29T03:44:45;3.28;;;2.25;;
22289;SDS011;11313;50.116;8.424;2023-05-29T03:47:11;2.85;;;2.20;;
22289;SDS011;11313;50.116;8.424;2023-05-29T03:49:37;2.83;;;2.60;;
22289;SDS011;11313;50.116;8.424;2023-05-29T03:52:03;2.60;;;2.25;;
22289;SDS011;11313;50.116;8.424;2023-05-29T03:54:29;3.13;;;2.50;;
22289;SDS011;11313;50.116;8.424;2023-05-29T03:56:54;2.50;;;2.30;;
22289;SDS011;11313;50.116;8.424;2023-05-29T03:59:20;2.63;;;2.28;;
22289;SDS011;11313;50.116;8.424;2023-05-29T04:01:45;2.55;;;2.30;;
22289;SDS011;11313;50.116;8.424;2023-05-29T04:04:11;3.10;;;2.60;;
22289;SDS011;11313;50.116;8.424;2023-05-29T04:06:36;3.10;;;2.30;;
22289;SDS011;11313;50.116;8.424;2023-05-29T04:09:03;2.72;;;2.25;;
22289;SDS011;11313;50.116;8.424;2023-05-29T04:11:31;2.90;;;2.40;;
22289;SDS011;11313;50.116;8.424;2023-05-29T04:13:59;2.50;;;2.30;;
22289;SDS011;11313;50.116;8.424;2023-05-29T04:16:25;2.78;;;2.42;;
22289;SDS011;11313;50.116;8.424;2023-05-29T04:18:50;2.38;;;2.17;;
22289;SDS011;11313;50.116;8.424;2023-05-29T04:21:16;2.35;;;2.15;;
22289;SDS011;11313;50.116;8.424;2023-05-29T04:23:41;2.90;;;2.70;;
22289;SDS011;11313;50.116;8.424;2023-05-29T04:26:07;2.20;;;2.00;;
22289;SDS011;11313;50.116;8.424;2023-05-29T04:28:32;2.38;;;2.17;;
22289;SDS011;11313;50.116;8.424;2023-05-29T04:30:58;2.65;;;2.25;;
22289;SDS011;11313;50.116;8.424;2023-05-29T04:33:23;2.85;;;2.25;;
22289;SDS011;11313;50.116;8.424;2023-05-29T04:35:50;2.67;;;2.20;;
22289;SDS011;11313;50.116;8.424;2023-05-29T04:38:15;2.65;;;2.22;;
22289;SDS011;11313;50.116;8.424;2023-05-29T04:40:42;1.95;;;1.83;;
22289;SDS011;11313;50.116;8.424;2023-05-29T04:43:09;2.80;;;2.50;;
22289;SDS011;11313;50.116;8.424;2023-05-29T04:45:35;2.25;;;2.05;;
22289;SDS011;11313;50.116;8.424;2023-05-29T04:48:02;2.20;;;2.00;;
22289;SDS011;11313;50.116;8.424;2023-05-29T04:50:28;3.25;;;2.30;;
22289;SDS011;11313;50.116;8.424;2023-05-29T04:52:55;3.05;;;2.17;;
22289;SDS011;11313;50.116;8.424;2023-05-29T04:55:22;2.92;;;2.25;;
22289;SDS011;11313;50.116;8.424;2023-05-29T04:57:48;2.50;;;2.25;;
22289;SDS011;11313;50.116;8.424;2023-05-29T05:00:13;3.03;;;2.65;;
22289;SDS011;11313;50.116;8.424;2023-05-29T05:02:42;2.50;;;2.30;;
22289;SDS011;11313;50.116;8.424;2023-05-29T05:05:08;2.42;;;2.20;;
22289;SDS011;11313;50.116;8.424;2023-05-29T05:07:34;2.78;;;2.15;;
22289;SDS011;11313;50.116;8.424;2023-05-29T05:10:00;2.95;;;2.65;;
22289;SDS011;11313;50.116;8.424;2023-05-29T05:12:26;2.58;;;2.38;;
22289;SDS011;11313;50.116;8.424;2023-05-29T05:14:52;2.25;;;2.08;;
22289;SDS011;11313;50.116;8.424;2023-05-29T05:17:17;2.85;;;2.50;;
22289;SDS011;11313;50.116;8.424;2023-05-29T05:19:43;2.28;;;2.08;;
22289;SDS011;11313;50.116;8.424;2023-05-29T05:22:08;2.92;;;2.58;;
22289;SDS011;11313;50.116;8.424;2023-05-29T05:24:34;2.58;;;2.17;;
22289;SDS011;11313;50.116;8.424;2023-05-29T05:27:00;2.60;;;2.40;;
22289;SDS011;11313;50.116;8.424;2023-05-29T05:29:25;2.45;;;2.25;;
22289;SDS011;11313;50.116;8.424;2023-05-29T05:31:51;2.63;;;2.42;;
22289;SDS011;11313;50.116;8.424;2023-05-29T05:34:16;2.65;;;2.30;;
22289;SDS011;11313;50.116;8.424;2023-05-29T05:36:42;2.50;;;2.30;;
22289;SDS011;11313;50.116;8.424;2023-05-29T05:39:08;2.63;;;2.38;;
22289;SDS011;11313;50.116;8.424;2023-05-29T05:41:33;2.70;;;2.10;;
22289;SDS011;11313;50.116;8.424;2023-05-29T05:43:59;2.97;;;2.78;;
22289;SDS011;11313;50.116;8.424;2023-05-29T05:46:24;2.20;;;2.00;;
22289;SDS011;11313;50.116;8.424;2023-05-29T05:48:50;2.67;;;2.45;;
22289;SDS011;11313;50.116;8.424;2023-05-29T05:51:16;2.35;;;2.08;;
22289;SDS011;11313;50.116;8.424;2023-05-29T05:53:42;2.58;;;2.35;;
22289;SDS011;11313;50.116;8.424;2023-05-29T05:56:08;3.28;;;2.97;;
22289;SDS011;11313;50.116;8.424;2023-05-29T05:58:34;2.88;;;2.67;;
22289;SDS011;11313;50.116;8.424;2023-05-29T06:01:00;2.53;;;2.33;;
22289;SDS011;11313;50.116;8.424;2023-05-29T06:03:26;2.38;;;2.17;;
22289;SDS011;11313;50.116;8.424;2023-05-29T06:05:51;3.20;;;2.90;;
22289;SDS011;11313;50.116;8.424;2023-05-29T06:08:19;3.03;;;2.53;;
22289;SDS011;11313;50.116;8.424;2023-05-29T06:10:44;2.85;;;2.40;;
22289;SDS011;11313;50.116;8.424;2023-05-29T06:13:10;4.00;;;3.70;;
22289;SDS011;11313;50.116;8.424;2023-05-29T06:15:36;5.93;;;5.53;;
22289;SDS011;11313;50.116;8.424;2023-05-29T06:18:02;2.65;;;2.38;;
22289;SDS011;11313;50.116;8.424;2023-05-29T06:20:30;3.28;;;3.03;;
22289;SDS011;11313;50.116;8.424;2023-05-29T06:22:56;2.42;;;2.20;;
22289;SDS011;11313;50.116;8.424;2023-05-29T06:25:21;2.65;;;2.22;;
22289;SDS011;11313;50.116;8.424;2023-05-29T06:27:47;2.42;;;2.22;;
22289;SDS011;11313;50.116;8.424;2023-05-29T06:30:12;2.97;;;2.72;;
22289;SDS011;11313;50.116;8.424;2023-05-29T06:32:38;2.63;;;2.40;;
22289;SDS011;11313;50.116;8.424;2023-05-29T06:35:04;2.60;;;2.38;;
22289;SDS011;11313;50.116;8.424;2023-05-29T06:37:31;2.63;;;2.42;;
22289;SDS011;11313;50.116;8.424;2023-05-29T06:39:56;3.00;;;2.55;;
22289;SDS011;11313;50.116;8.424;2023-05-29T06:42:22;3.05;;;2.75;;
22289;SDS011;11313;50.116;8.424;2023-05-29T06:44:47;3.67;;;2.75;;
22289;SDS011;11313;50.116;8.424;2023-05-29T06:47:13;2.95;;;2.75;;
22289;SDS011;11313;50.116;8.424;2023-05-29T06:49:38;3.47;;;3.17;;
22289;SDS011;11313;50.116;8.424;2023-05-29T06:52:04;3.22;;;2.92;;
22289;SDS011;11313;50.116;8.424;2023-05-29T06:54:29;2.33;;;2.13;;
22289;SDS011;11313;50.116;8.424;2023-05-29T06:56:55;3.83;;;2.15;;
22289;SDS011;11313;50.116;8.424;2023-05-29T06:59:21;2.83;;;2.22;;
22289;SDS011;11313;50.116;8.424;2023-05-29T07:01:47;3.75;;;2.72;;
22289;SDS011;11313;50.116;8.424;2023-05-29T07:04:12;3.28;;;2.90;;
22289;SDS011;11313;50.116;8.424;2023-05-29T07:06:38;2.70;;;2.50;;
22289;SDS011;11313;50.116;8.424;2023-05-29T07:09:03;3.35;;;3.05;;
22289;SDS011;11313;50.116;8.424;2023-05-29T07:11:29;8.02;;;7.53;;
22289;SDS011;11313;50.116;8.424;2023-05-29T07:13:55;3.00;;;2.63;;
22289;SDS011;11313;50.116;8.424;2023-05-29T07:16:20;3.13;;;2.83;;
22289;SDS011;11313;50.116;8.424;2023-05-29T07:18:46;2.75;;;2.45;;
22289;SDS011;11313;50.116;8.424;2023-05-29T07:21:11;2.97;;;2.67;;
22289;SDS011;11313;50.116;8.424;2023-05-29T07:23:37;5.50;;;5.10;;
22289;SDS011;11313;50.116;8.424;2023-05-29T07:26:02;3.92;;;3.53;;
22289;SDS011;11313;50.116;8.424;2023-05-29T07:28:28;4.28;;;3.97;;
22289;SDS011;11313;50.116;8.424;2023-05-29T07:30:53;3.17;;;2.97;;
22289;SDS011;11313;50.116;8.424;2023-05-29T07:33:19;3.47;;;2.85;;
22289;SDS011;11313;50.116;8.424;2023-05-29T07:35:45;3.47;;;3.17;;
22289;SDS011;11313;50.116;8.424;2023-05-29T07:38:10;3.20;;;2.90;;
22289;SDS011;11313;50.116;8.424;2023-05-29T07:40:36;2.55;;;2.35;;
22289;SDS011;11313;50.116;8.424;2023-05-29T07:43:01;3.08;;;2.78;;
22289;SDS011;11313;50.116;8.424;2023-05-29T07:45:27;128.68;;;119.07;;
22289;SDS011;11313;50.116;8.424;2023-05-29T07:47:52;27.30;;;25.02;;
22289;SDS011;11313;50.116;8.424;2023-05-29T07:50:18;683.28;;;628.25;;
22289;SDS011;11313;50.116;8.424;2023-05-29T07:52:44;496.67;;;458.30;;
22289;SDS011;11313;50.116;8.424;2023-05-29T07:55:10;169.68;;;156.82;;
22289;SDS011;11313;50.116;8.424;2023-05-29T07:57:36;172.10;;;159.18;;
22289;SDS011;11313;50.116;8.424;2023-05-29T08:00:02;321.90;;;300.23;;
22289;SDS011;11313;50.116;8.424;2023-05-29T08:02:33;682.92;;;629.00;;
22289;SDS011;11313;50.116;8.424;2023-05-29T08:04:59;278.63;;;255.40;;
22289;SDS011;11313;50.116;8.424;2023-05-29T08:07:24;139.88;;;129.68;;
22289;SDS011;11313;50.116;8.424;2023-05-29T08:09:51;206.15;;;191.75;;
22289;SDS011;11313;50.116;8.424;2023-05-29T08:12:18;103.80;;;96.70;;
22289;SDS011;11313;50.116;8.424;2023-05-29T08:14:43;62.28;;;57.28;;
22289;SDS011;11313;50.116;8.424;2023-05-29T08:17:09;292.05;;;271.92;;
22289;SDS011;11313;50.116;8.424;2023-05-29T08:19:34;351.52;;;328.50;;
22289;SDS011;11313;50.116;8.424;2023-05-29T08:22:00;266.02;;;248.30;;
22289;SDS011;11313;50.116;8.424;2023-05-29T08:24:25;32.35;;;30.13;;
22289;SDS011;11313;50.116;8.424;2023-05-29T08:26:52;97.95;;;91.38;;
22289;SDS011;11313;50.116;8.424;2023-05-29T08:29:18;584.03;;;542.25;;
22289;SDS011;11313;50.116;8.424;2023-05-29T08:31:44;153.20;;;143.20;;
22289;SDS011;11313;50.116;8.424;2023-05-29T08:34:09;334.35;;;312.90;;
22289;SDS011;11313;50.116;8.424;2023-05-29T08:36:35;251.25;;;234.73;;
22289;SDS011;11313;50.116;8.424;2023-05-29T08:39:00;143.45;;;134.32;;
22289;SDS011;11313;50.116;8.424;2023-05-29T08:41:36;84.00;;;78.07;;
22289;SDS011;11313;50.116;8.424;2023-05-29T08:44:22;34.42;;;31.88;;
22289;SDS011;11313;50.116;8.424;2023-05-29T08:46:52;99.97;;;93.28;;
22289;SDS011;11313;50.116;8.424;2023-05-29T08:49:20;76.03;;;70.55;;
22289;SDS011;11313;50.116;8.424;2023-05-29T08:51:47;76.72;;;71.55;;
22289;SDS011;11313;50.116;8.424;2023-05-29T08:54:18;77.57;;;72.50;;
22289;SDS011;11313;50.116;8.424;2023-05-29T08:56:44;17.02;;;15.70;;
22289;SDS011;11313;50.116;8.424;2023-05-29T08:59:09;43.75;;;40.60;;
22289;SDS011;11313;50.116;8.424;2023-05-29T09:01:36;68.63;;;64.13;;
22289;SDS011;11313;50.116;8.424;2023-05-29T09:04:04;108.35;;;100.85;;
22289;SDS011;11313;50.116;8.424;2023-05-29T09:06:29;129.07;;;120.18;;
22289;SDS011;11313;50.116;8.424;2023-05-29T09:08:55;125.65;;;117.63;;
22289;SDS011;11313;50.116;8.424;2023-05-29T09:11:22;81.65;;;76.10;;
22289;SDS011;11313;50.116;8.424;2023-05-29T09:13:48;112.57;;;104.38;;
22289;SDS011;11313;50.116;8.424;2023-05-29T09:16:15;95.85;;;89.55;;
22289;SDS011;11313;50.116;8.424;2023-05-29T09:18:41;51.55;;;47.85;;
22289;SDS011;11313;50.116;8.424;2023-05-29T09:21:10;61.13;;;56.85;;
22289;SDS011;11313;50.116;8.424;2023-05-29T09:23:51;156.18;;;146.15;;
22289;SDS011;11313;50.116;8.424;2023-05-29T09:26:17;262.40;;;245.95;;
22289;SDS011;11313;50.116;8.424;2023-05-29T09:28:42;89.63;;;83.68;;
22289;SDS011;11313;50.116;8.424;2023-05-29T09:31:14;71.32;;;66.47;;
22289;SDS011;11313;50.116;8.424;2023-05-29T09:33:48;57.15;;;53.35;;
22289;SDS011;11313;50.116;8.424;2023-05-29T09:36:20;28.23;;;25.95;;
22289;SDS011;11313;50.116;8.424;2023-05-29T09:38:47;74.28;;;69.20;;
22289;SDS011;11313;50.116;8.424;2023-05-29T09:41:12;119.72;;;111.75;;
22289;SDS011;11313;50.116;8.424;2023-05-29T09:43:38;23.95;;;21.92;;
22289;SDS011;11313;50.116;8.424;2023-05-29T09:46:05;53.40;;;49.42;;
22289;SDS011;11313;50.116;8.424;2023-05-29T09:48:34;27.38;;;25.13;;
22289;SDS011;11313;50.116;8.424;2023-05-29T09:51:00;178.55;;;167.05;;
22289;SDS011;11313;50.116;8.424;2023-05-29T09:53:27;6.53;;;5.32;;
22289;SDS011;11313;50.116;8.424;2023-05-29T09:55:56;97.50;;;91.18;;
22289;SDS011;11313;50.116;8.424;2023-05-29T10:00:50;59.13;;;55.22;;
22289;SDS011;11313;50.116;8.424;2023-05-29T10:03:17;80.72;;;75.68;;
22289;SDS011;11313;50.116;8.424;2023-05-29T10:05:44;73.63;;;68.68;;
22289;SDS011;11313;50.116;8.424;2023-05-29T10:10:43;128.15;;;119.97;;
22289;SDS011;11313;50.116;8.424;2023-05-29T10:13:12;15.57;;;13.68;;
22289;SDS011;11313;50.116;8.424;2023-05-29T10:15:43;5.40;;;3.53;;
22289;SDS011;11313;50.116;8.424;2023-05-29T10:18:14;9.55;;;8.73;;
22289;SDS011;11313;50.116;8.424;2023-05-29T10:20:46;7.07;;;5.55;;
22289;SDS011;11313;50.116;8.424;2023-05-29T10:23:16;6.60;;;4.10;;
22289;SDS011;11313;50.116;8.424;2023-05-29T10:25:48;6.78;;;3.85;;
22289;SDS011;11313;50.116;8.424;2023-05-29T10:30:55;14.02;;;4.07;;
22289;SDS011;11313;50.116;8.424;2023-05-29T10:33:42;12.18;;;5.85;;
22289;SDS011;11313;50.116;8.424;2023-05-29T10:36:44;14.38;;;8.02;;
22289;SDS011;11313;50.116;8.424;2023-05-29T10:39:14;6.75;;;4.18;;
22289;SDS011;11313;50.116;8.424;2023-05-29T10:41:40;8.55;;;4.10;;
22289;SDS011;11313;50.116;8.424;2023-05-29T10:47:01;8.88;;;4.10;;
22289;SDS011;11313;50.116;8.424;2023-05-29T10:49:28;8.27;;;4.75;;
22289;SDS011;11313;50.116;8.424;2023-05-29T10:51:54;7.13;;;4.38;;
22289;SDS011;11313;50.116;8.424;2023-05-29T10:54:23;6.55;;;5.00;;
22289;SDS011;11313;50.116;8.424;2023-05-29T10:56:57;6.10;;;3.95;;
22289;SDS011;11313;50.116;8.424;2023-05-29T10:59:25;28.25;;;26.33;;
22289;SDS011;11313;50.116;8.424;2023-05-29T11:01:52;23.30;;;21.65;;
22289;SDS011;11313;50.116;8.424;2023-05-29T11:06:49;101.10;;;94.93;;
22289;SDS011;11313;50.116;8.424;2023-05-29T11:09:32;145.55;;;136.40;;
22289;SDS011;11313;50.116;8.424;2023-05-29T11:12:12;93.28;;;87.40;;
22289;SDS011;11313;50.116;8.424;2023-05-29T11:14:45;278.98;;;261.67;;
22289;SDS011;11313;50.116;8.424;2023-05-29T11:17:31;405.70;;;378.85;;
22289;SDS011;11313;50.116;8.424;2023-05-29T11:20:00;318.05;;;297.75;;
22289;SDS011;11313;50.116;8.424;2023-05-29T11:22:32;399.88;;;373.60;;
22289;SDS011;11313;50.116;8.424;2023-05-29T11:25:02;460.52;;;429.48;;
22289;SDS011;11313;50.116;8.424;2023-05-29T11:27:30;450.33;;;420.40;;
22289;SDS011;11313;50.116;8.424;2023-05-29T11:29:56;861.97;;;788.17;;
22289;SDS011;11313;50.116;8.424;2023-05-29T11:32:22;739.33;;;680.53;;
22289;SDS011;11313;50.116;8.424;2023-05-29T11:34:52;663.40;;;613.33;;
22289;SDS011;11313;50.116;8.424;2023-05-29T11:37:21;641.35;;;593.17;;
22289;SDS011;11313;50.116;8.424;2023-05-29T11:39:48;722.88;;;666.22;;
22289;SDS011;11313;50.116;8.424;2023-05-29T11:42:13;732.47;;;674.85;;
22289;SDS011;11313;50.116;8.424;2023-05-29T11:44:40;783.15;;;720.03;;
22289;SDS011;11313;50.116;8.424;2023-05-29T11:47:06;731.53;;;673.95;;
22289;SDS011;11313;50.116;8.424;2023-05-29T11:49:32;893.38;;;816.58;;
22289;SDS011;11313;50.116;8.424;2023-05-29T11:52:06;788.72;;;725.35;;
22289;SDS011;11313;50.116;8.424;2023-05-29T11:54:36;787.47;;;723.60;;
22289;SDS011;11313;50.116;8.424;2023-05-29T11:57:01;810.40;;;742.55;;
22289;SDS011;11313;50.116;8.424;2023-05-29T11:59:31;773.47;;;710.17;;
22289;SDS011;11313;50.116;8.424;2023-05-29T12:01:57;866.85;;;793.25;;
22289;SDS011;11313;50.116;8.424;2023-05-29T12:04:23;813.83;;;744.85;;
22289;SDS011;11313;50.116;8.424;2023-05-29T12:06:49;836.15;;;764.60;;
22289;SDS011;11313;50.116;8.424;2023-05-29T12:09:27;858.45;;;788.13;;
22289;SDS011;11313;50.116;8.424;2023-05-29T12:11:54;888.90;;;813.53;;
22289;SDS011;11313;50.116;8.424;2023-05-29T12:14:27;911.75;;;828.95;;
22289;SDS011;11313;50.116;8.424;2023-05-29T12:16:53;910.13;;;830.50;;
22289;SDS011;11313;50.116;8.424;2023-05-29T12:19:18;882.78;;;806.28;;
22289;SDS011;11313;50.116;8.424;2023-05-29T12:21:44;902.22;;;822.33;;
22289;SDS011;11313;50.116;8.424;2023-05-29T12:24:10;898.28;;;822.22;;
22289;SDS011;11313;50.116;8.424;2023-05-29T12:26:36;788.03;;;724.38;;
22289;SDS011;11313;50.116;8.424;2023-05-29T12:29:02;813.33;;;747.45;;
22289;SDS011;11313;50.116;8.424;2023-05-29T12:31:29;961.75;;;874.67;;
22289;SDS011;11313;50.116;8.424;2023-05-29T12:34:14;943.00;;;859.42;;
22289;SDS011;11313;50.116;8.424;2023-05-29T12:36:40;905.90;;;829.30;;
22289;SDS011;11313;50.116;8.424;2023-05-29T12:39:07;864.83;;;794.05;;
22289;SDS011;11313;50.116;8.424;2023-05-29T12:41:37;889.88;;;813.80;;
22289;SDS011;11313;50.116;8.424;2023-05-29T12:44:04;876.58;;;804.95;;
22289;SDS011;11313;50.116;8.424;2023-05-29T12:46:36;812.83;;;747.67;;
22289;SDS011;11313;50.116;8.424;2023-05-29T12:49:26;853.03;;;782.35;;
22289;SDS011;11313;50.116;8.424;2023-05-29T12:51:53;835.42;;;766.40;;
22289;SDS011;11313;50.116;8.424;2023-05-29T12:54:19;848.35;;;779.72;;
22289;SDS011;11313;50.116;8.424;2023-05-29T12:56:44;877.20;;;805.45;;
22289;SDS011;11313;50.116;8.424;2023-05-29T12:59:11;914.33;;;834.60;;
22289;SDS011;11313;50.116;8.424;2023-05-29T13:01:37;891.15;;;817.08;;
22289;SDS011;11313;50.116;8.424;2023-05-29T13:04:03;885.15;;;812.70;;
22289;SDS011;11313;50.116;8.424;2023-05-29T13:06:31;897.28;;;822.10;;
22289;SDS011;11313;50.116;8.424;2023-05-29T13:08:58;790.70;;;727.00;;
22289;SDS011;11313;50.116;8.424;2023-05-29T13:11:23;883.60;;;808.55;;
22289;SDS011;11313;50.116;8.424;2023-05-29T13:13:48;866.80;;;794.05;;
22289;SDS011;11313;50.116;8.424;2023-05-29T13:16:14;822.58;;;755.15;;
22289;SDS011;11313;50.116;8.424;2023-05-29T13:18:42;875.05;;;801.85;;
22289;SDS011;11313;50.116;8.424;2023-05-29T13:21:08;930.78;;;849.80;;
22289;SDS011;11313;50.116;8.424;2023-05-29T13:23:33;862.35;;;791.10;;
22289;SDS011;11313;50.116;8.424;2023-05-29T13:25:59;909.95;;;831.15;;
22289;SDS011;11313;50.116;8.424;2023-05-29T13:28:24;825.08;;;757.45;;
22289;SDS011;11313;50.116;8.424;2023-05-29T13:30:50;865.33;;;793.20;;
22289;SDS011;11313;50.116;8.424;2023-05-29T13:33:15;899.63;;;822.42;;
22289;SDS011;11313;50.116;8.424;2023-05-29T13:35:41;675.22;;;623.85;;
22289;SDS011;11313;50.116;8.424;2023-05-29T13:38:06;623.95;;;577.55;;
22289;SDS011;11313;50.116;8.424;2023-05-29T13:40:32;723.70;;;667.03;;
22289;SDS011;11313;50.116;8.424;2023-05-29T13:42:57;658.17;;;606.55;;
22289;SDS011;11313;50.116;8.424;2023-05-29T13:45:23;716.67;;;659.65;;
22289;SDS011;11313;50.116;8.424;2023-05-29T13:47:49;588.65;;;543.28;;
22289;SDS011;11313;50.116;8.424;2023-05-29T13:50:14;563.60;;;520.70;;
22289;SDS011;11313;50.116;8.424;2023-05-29T13:52:40;707.88;;;652.15;;
22289;SDS011;11313;50.116;8.424;2023-05-29T13:55:05;744.60;;;685.38;;
22289;SDS011;11313;50.116;8.424;2023-05-29T13:57:33;551.17;;;509.50;;
22289;SDS011;11313;50.116;8.424;2023-05-29T13:59:59;694.17;;;640.38;;
22289;SDS011;11313;50.116;8.424;2023-05-29T14:02:25;643.97;;;595.47;;
22289;SDS011;11313;50.116;8.424;2023-05-29T14:04:51;426.42;;;396.92;;
22289;SDS011;11313;50.116;8.424;2023-05-29T14:07:17;609.38;;;563.00;;
22289;SDS011;11313;50.116;8.424;2023-05-29T14:09:42;460.42;;;426.52;;
22289;SDS011;11313;50.116;8.424;2023-05-29T14:12:08;566.95;;;524.83;;
22289;SDS011;11313;50.116;8.424;2023-05-29T14:14:33;550.50;;;509.70;;
22289;SDS011;11313;50.116;8.424;2023-05-29T14:16:59;516.47;;;477.83;;
22289;SDS011;11313;50.116;8.424;2023-05-29T14:19:25;473.75;;;438.88;;
22289;SDS011;11313;50.116;8.424;2023-05-29T14:21:51;455.83;;;422.83;;
22289;SDS011;11313;50.116;8.424;2023-05-29T14:24:17;462.48;;;428.40;;
22289;SDS011;11313;50.116;8.424;2023-05-29T14:26:43;446.08;;;414.08;;
22289;SDS011;11313;50.116;8.424;2023-05-29T14:29:11;618.97;;;571.42;;
22289;SDS011;11313;50.116;8.424;2023-05-29T14:31:38;383.90;;;357.75;;
22289;SDS011;11313;50.116;8.424;2023-05-29T14:34:04;378.52;;;351.90;;
22289;SDS011;11313;50.116;8.424;2023-05-29T14:36:30;307.77;;;287.23;;
22289;SDS011;11313;50.116;8.424;2023-05-29T14:38:55;442.42;;;408.70;;
22289;SDS011;11313;50.116;8.424;2023-05-29T14:41:21;392.13;;;363.83;;
22289;SDS011;11313;50.116;8.424;2023-05-29T14:43:47;416.27;;;385.73;;
22289;SDS011;11313;50.116;8.424;2023-05-29T14:46:12;476.58;;;440.70;;